Itaquitinga, Brazil
Current Conditions -  °F | °C
As of 2:00 PM on Friday 21 Nov 2014 (Local Time) from SBRF Reporting Station
Few Clouds Few Clouds  
Wind Chill: 84°   Ceiling: Unl
Heat Index: 90°   Visibility: 6mi
Dew Point: 72°   Wind: 14mph
Humidity: 66%   Direction: 80°E
Pressure: 29.88"   Gusts: NA
Location:  7.67°S, 35.1°W
Report Text: SBRF 211700Z 08012KT 9999 FEW023 29/22 Q1012
Loading
Personal Weather Stations






























Interactive Weather Map New forecast layout! Learn more

10-Day Weather Forecast

Advertisements
Track Severe Weather on mobile